Time;durP1;ratioP1;P1;durP2;ratioP2;P2;SDS_P1;SDS_P2;PMS_P1;PMS_P2;Temp;Humidity;BMP_temperature;BMP_pressure;BME280_temperature;BME280_humidity;BME280_pressure;Samples;Min_cycle;Max_cycle;Signal;HPM_P1;HPM_P2
2023/10/31 00:01:37;;;;;;;1.45;1.33;;;;;;;12.06;100.00;98803.53;5049148;28;20041;-78
2023/10/31 00:04:04;;;;;;;2.13;1.92;;;;;;;12.07;100.00;98807.84;5045022;28;20126;-79
2023/10/31 00:06:30;;;;;;;2.92;1.60;;;;;;;12.06;100.00;98800.91;5046421;28;20041;-77
2023/10/31 00:08:57;;;;;;;1.98;1.83;;;;;;;12.10;100.00;98799.00;5045104;28;20436;-82
2023/10/31 00:11:23;;;;;;;2.53;1.95;;;;;;;12.07;100.00;98798.22;5047242;28;20879;-77
2023/10/31 00:13:50;;;;;;;4.53;1.88;;;;;;;12.10;100.00;98799.84;5045236;28;20036;-80
2023/10/31 00:16:18;;;;;;;4.68;1.67;;;;;;;12.10;100.00;98801.59;5055111;28;20592;-78
2023/10/31 00:18:45;;;;;;;5.18;2.10;;;;;;;12.11;100.00;98779.72;5066081;28;20094;-77
2023/10/31 00:21:11;;;;;;;2.63;2.05;;;;;;;12.09;100.00;98774.53;5040694;28;20073;-77
2023/10/31 00:23:46;;;;;;;4.65;1.98;;;;;;;12.09;100.00;98777.16;5034716;28;20045;-77
2023/10/31 00:26:13;;;;;;;2.50;1.70;;;;;;;12.06;100.00;98782.56;5034031;28;20044;-80
2023/10/31 00:28:40;;;;;;;3.92;2.00;;;;;;;12.08;100.00;98778.09;5044295;28;20037;-83
2023/10/31 00:31:07;;;;;;;2.03;1.92;;;;;;;12.06;100.00;98783.41;5059220;28;20098;-77
2023/10/31 00:33:35;;;;;;;3.28;2.08;;;;;;;12.07;100.00;98784.25;5038225;28;20125;-78
2023/10/31 00:36:03;;;;;;;3.33;1.85;;;;;;;12.02;100.00;98787.09;5019175;28;20049;-81
2023/10/31 00:38:29;;;;;;;4.85;2.08;;;;;;;12.02;100.00;98783.59;5043453;28;20342;-78
2023/10/31 00:40:56;;;;;;;3.00;2.00;;;;;;;12.03;100.00;98783.56;5025946;28;20095;-84
2023/10/31 00:43:26;;;;;;;3.33;1.83;;;;;;;12.02;100.00;98779.22;5041396;28;20372;-80
2023/10/31 00:45:54;;;;;;;2.60;2.00;;;;;;;12.03;100.00;98778.31;5046969;28;20390;-80
2023/10/31 00:48:21;;;;;;;2.08;1.88;;;;;;;12.03;100.00;98774.81;5043015;28;20490;-79
2023/10/31 00:50:47;;;;;;;4.50;2.38;;;;;;;12.04;100.00;98774.75;5044911;28;20121;-79
2023/10/31 00:53:15;;;;;;;3.13;2.53;;;;;;;12.05;100.00;98773.00;5044537;28;20453;-78
2023/10/31 00:55:41;;;;;;;3.28;1.80;;;;;;;12.08;100.00;98776.31;5028092;28;20072;-78
2023/10/31 00:58:12;;;;;;;2.83;1.95;;;;;;;12.07;100.00;98769.38;5044711;28;20045;-79
2023/10/31 01:00:38;;;;;;;3.40;2.00;;;;;;;12.10;100.00;98776.25;5042769;28;20047;-84
2023/10/31 01:03:05;;;;;;;4.55;1.92;;;;;;;12.11;100.00;98774.47;5044110;28;20076;-78
2023/10/31 01:05:31;;;;;;;2.10;1.98;;;;;;;12.10;100.00;98776.25;5046560;28;20048;-80
2023/10/31 01:07:58;;;;;;;3.15;2.17;;;;;;;12.14;100.00;98763.84;5043178;28;20052;-87
2023/10/31 01:10:27;;;;;;;2.60;2.08;;;;;;;12.15;100.00;98763.78;5021726;28;20045;-81
2023/10/31 01:12:54;;;;;;;2.85;1.98;;;;;;;12.16;100.00;98765.50;5041305;28;20056;-78
2023/10/31 01:15:20;;;;;;;4.60;1.88;;;;;;;12.16;100.00;98755.00;5042415;28;20063;-79
2023/10/31 01:17:46;;;;;;;3.78;2.22;;;;;;;12.15;100.00;98763.78;5025068;28;20041;-78
2023/10/31 01:20:13;;;;;;;5.20;3.00;;;;;;;12.17;100.00;98759.31;5042975;28;20408;-78
2023/10/31 01:22:39;;;;;;;13.93;6.40;;;;;;;12.18;100.00;98755.75;5049070;28;20048;-81
2023/10/31 01:25:07;;;;;;;8.15;4.28;;;;;;;12.18;100.00;98745.28;5047409;28;20132;-83
2023/10/31 01:27:33;;;;;;;7.10;4.13;;;;;;;12.17;100.00;98754.06;5039924;28;20511;-80
2023/10/31 01:30:00;;;;;;;6.32;2.88;;;;;;;12.19;100.00;98754.84;5043069;28;20077;-87
2023/10/31 01:32:27;;;;;;;3.80;3.33;;;;;;;12.18;100.00;98761.00;5041684;28;20043;-80
2023/10/31 01:34:53;;;;;;;2.92;2.53;;;;;;;12.16;100.00;98760.25;5043122;28;20095;-78
2023/10/31 01:37:21;;;;;;;3.58;2.63;;;;;;;12.18;100.00;98757.53;5038125;28;20045;-81
2023/10/31 01:39:48;;;;;;;2.40;2.20;;;;;;;12.15;100.00;98755.03;5041224;28;20120;-76
2023/10/31 01:42:15;;;;;;;4.50;3.50;;;;;;;12.16;100.00;98736.63;5026091;28;20049;-77
2023/10/31 01:44:43;;;;;;;4.68;2.40;;;;;;;12.19;100.00;98743.47;5046492;28;20037;-81
2023/10/31 01:47:09;;;;;;;3.00;1.88;;;;;;;12.18;100.00;98737.41;5051047;28;20036;-77
2023/10/31 01:49:37;;;;;;;3.95;2.83;;;;;;;12.22;100.00;98730.25;5051659;28;20053;-77
2023/10/31 01:52:05;;;;;;;2.85;2.65;;;;;;;12.17;100.00;98724.34;5048390;28;20046;-77
2023/10/31 01:54:34;;;;;;;3.70;2.63;;;;;;;12.16;100.00;98720.91;5043516;28;20048;-78
2023/10/31 01:57:02;;;;;;;4.28;3.63;;;;;;;12.19;100.00;98720.75;5040292;28;20057;-84
2023/10/31 01:59:29;;;;;;;5.38;4.30;;;;;;;12.18;100.00;98705.91;5048527;28;20029;-77
2023/10/31 02:01:57;;;;;;;4.57;3.75;;;;;;;12.21;100.00;98707.56;5051650;28;20049;-80
2023/10/31 02:04:25;;;;;;;7.82;4.13;;;;;;;12.21;100.00;98705.75;5049329;28;20052;-84
2023/10/31 02:06:51;;;;;;;3.20;2.97;;;;;;;12.25;100.00;98709.09;5050112;28;20119;-77
2023/10/31 02:09:23;;;;;;;6.05;3.03;;;;;;;12.30;100.00;98709.75;5036865;28;20152;-80
2023/10/31 02:11:50;;;;;;;2.20;2.00;;;;;;;12.34;100.00;98706.03;5067322;28;20053;-78
2023/10/31 02:14:18;;;;;;;2.72;2.45;;;;;;;12.39;100.00;98698.81;5045934;28;20976;-78
2023/10/31 02:16:45;;;;;;;2.53;1.95;;;;;;;12.46;100.00;98703.75;5042535;28;20041;-79
2023/10/31 02:19:15;;;;;;;3.60;2.33;;;;;;;12.50;100.00;98705.31;5044115;28;20037;-77
2023/10/31 02:21:41;;;;;;;4.05;2.30;;;;;;;12.53;100.00;98694.69;5048002;28;20492;-79
2023/10/31 02:24:08;;;;;;;3.33;2.00;;;;;;;12.55;100.00;98700.69;5047596;28;20155;-77
2023/10/31 02:26:35;;;;;;;2.95;1.90;;;;;;;12.57;100.00;98697.06;5029264;28;20489;-81
2023/10/31 02:29:03;;;;;;;2.03;1.92;;;;;;;12.61;100.00;98703.03;5042854;28;20045;-86
2023/10/31 02:31:30;;;;;;;2.15;2.05;;;;;;;12.60;100.00;98701.31;5057863;28;20049;-86
2023/10/31 02:33:56;;;;;;;3.00;2.55;;;;;;;12.60;100.00;98703.09;5046328;28;20045;-79
2023/10/31 02:36:29;;;;;;;3.45;2.58;;;;;;;12.57;100.00;98699.69;5047651;28;20128;-82
2023/10/31 02:38:55;;;;;;;3.63;1.83;;;;;;;12.54;100.00;98705.09;5038108;28;20049;-80
2023/10/31 02:41:23;;;;;;;3.58;3.28;;;;;;;12.56;100.00;98699.78;5050208;28;20049;-78
2023/10/31 02:43:49;;;;;;;2.30;2.00;;;;;;;12.54;100.00;98691.13;5047359;28;20151;-77
2023/10/31 02:46:16;;;;;;;2.05;1.75;;;;;;;12.54;100.00;98683.25;5047151;28;20109;-79
2023/10/31 02:48:42;;;;;;;2.88;1.88;;;;;;;12.55;100.00;98682.31;5038416;28;20501;-78
2023/10/31 02:51:09;;;;;;;1.90;1.70;;;;;;;12.54;100.00;98678.84;5046439;28;20052;-78
2023/10/31 02:53:36;;;;;;;5.15;2.03;;;;;;;12.57;100.00;98683.94;5044742;28;20156;-78
2023/10/31 02:56:06;;;;;;;2.05;1.92;;;;;;;12.57;100.00;98676.06;5048948;28;20047;-87
2023/10/31 02:58:36;;;;;;;3.80;1.73;;;;;;;12.60;100.00;98685.56;5043622;28;20051;-78
2023/10/31 03:01:02;;;;;;;1.83;1.60;;;;;;;12.61;100.00;98686.44;5047469;28;20041;-80
2023/10/31 03:03:29;;;;;;;2.30;2.00;;;;;;;12.62;100.00;98686.34;5028221;28;20444;-78
2023/10/31 03:05:56;;;;;;;2.85;1.65;;;;;;;12.64;100.00;98678.41;5044794;28;20037;-84
2023/10/31 03:08:23;;;;;;;3.72;2.38;;;;;;;12.62;100.00;98681.09;5040984;28;20968;-78
2023/10/31 03:10:51;;;;;;;2.40;1.98;;;;;;;12.63;100.00;98680.16;5043164;28;20042;-77
2023/10/31 03:13:19;;;;;;;2.55;2.35;;;;;;;12.62;100.00;98670.63;5039550;28;20041;-78
2023/10/31 03:15:47;;;;;;;1.75;1.55;;;;;;;12.66;100.00;98666.03;5042523;28;20041;-79
2023/10/31 03:18:15;;;;;;;3.03;1.65;;;;;;;12.68;100.00;98667.66;5045257;28;20041;-77
2023/10/31 03:20:44;;;;;;;1.98;1.48;;;;;;;12.69;100.00;98669.38;5040830;28;20485;-77
2023/10/31 03:23:11;;;;;;;1.75;1.65;;;;;;;12.69;100.00;98666.75;5026046;28;20346;-78
2023/10/31 03:25:38;;;;;;;3.08;1.50;;;;;;;12.72;100.00;98671.00;5048007;28;20447;-76
2023/10/31 03:28:04;;;;;;;4.18;1.98;;;;;;;12.75;100.00;98670.84;5024261;28;20033;-86
2023/10/31 03:30:31;;;;;;;3.42;1.88;;;;;;;12.76;100.00;98675.16;5046405;28;20040;-80
2023/10/31 03:32:57;;;;;;;2.47;1.52;;;;;;;12.72;100.00;98678.88;5027060;28;20401;-79
2023/10/31 03:35:24;;;;;;;6.10;1.70;;;;;;;12.69;100.00;98679.03;5039632;28;20218;-78
2023/10/31 03:37:50;;;;;;;2.70;1.58;;;;;;;12.56;100.00;98673.53;5044941;28;20034;-77
2023/10/31 03:40:17;;;;;;;4.43;1.92;;;;;;;12.52;100.00;98690.34;5038233;28;20449;-80
2023/10/31 03:42:44;;;;;;;2.30;2.10;;;;;;;12.44;100.00;98697.72;5045317;28;20047;-77
2023/10/31 03:45:10;;;;;;;2.38;2.25;;;;;;;12.38;100.00;98691.88;5046496;28;20057;-78
2023/10/31 03:47:37;;;;;;;2.78;2.60;;;;;;;12.31;100.00;98692.25;5044072;28;20041;-78
2023/10/31 03:50:04;;;;;;;2.28;2.17;;;;;;;12.24;100.00;98696.91;5049507;28;20087;-77
2023/10/31 03:52:30;;;;;;;2.40;2.30;;;;;;;12.16;100.00;98715.66;5047377;28;20045;-78
2023/10/31 03:54:57;;;;;;;3.15;2.00;;;;;;;12.15;100.00;98713.06;5045047;28;20159;-77
2023/10/31 03:57:23;;;;;;;2.30;2.03;;;;;;;12.08;100.00;98723.00;5047814;28;20041;-79
2023/10/31 03:59:50;;;;;;;2.00;1.90;;;;;;;12.07;100.00;98729.16;5042864;28;20052;-79
2023/10/31 04:02:16;;;;;;;1.40;1.40;;;;;;;12.00;100.00;98728.59;5045431;28;20197;-77
2023/10/31 04:04:43;;;;;;;1.45;1.45;;;;;;;11.89;100.00;98720.38;5059030;28;20063;-77
2023/10/31 04:07:12;;;;;;;2.47;1.30;;;;;;;11.91;100.00;98721.13;5047927;28;20045;-83
2023/10/31 04:09:38;;;;;;;2.20;1.45;;;;;;;11.80;100.00;98720.75;5046403;28;20167;-78
2023/10/31 04:12:06;;;;;;;1.40;1.30;;;;;;;11.76;100.00;98712.19;5026118;28;20136;-82
2023/10/31 04:14:32;;;;;;;1.15;1.10;;;;;;;11.73;100.00;98722.81;5061713;28;20044;-79
2023/10/31 04:16:59;;;;;;;1.95;1.33;;;;;;;11.67;100.00;98718.69;5039576;28;20053;-80
2023/10/31 04:19:24;;;;;;;1.05;0.82;;;;;;;11.65;100.00;98731.00;5026454;28;20040;-81
2023/10/31 04:21:51;;;;;;;1.00;1.00;;;;;;;11.58;100.00;98719.94;5024536;28;20080;-78
2023/10/31 04:24:17;;;;;;;1.08;0.75;;;;;;;11.46;100.00;98722.25;5040997;28;20386;-78
2023/10/31 04:26:44;;;;;;;0.73;0.60;;;;;;;11.50;100.00;98718.56;5037349;28;20091;-78
2023/10/31 04:29:10;;;;;;;1.05;0.50;;;;;;;11.45;100.00;98718.78;5039686;28;20507;-80
2023/10/31 04:31:37;;;;;;;0.70;0.70;;;;;;;11.38;100.00;98702.50;5024568;28;20614;-78
2023/10/31 04:34:03;;;;;;;1.23;0.80;;;;;;;11.32;100.00;98699.28;5050051;28;20128;-77
2023/10/31 04:36:33;;;;;;;0.70;0.30;;;;;;;11.31;100.00;98701.03;5042833;28;20044;-82
2023/10/31 04:38:59;;;;;;;0.38;0.10;;;;;;;11.26;100.00;98721.34;5039544;28;20041;-80
2023/10/31 04:41:26;;;;;;;0.45;0.45;;;;;;;11.25;100.00;98725.75;5042185;28;20507;-80
2023/10/31 04:43:52;;;;;;;0.20;0.20;;;;;;;11.27;100.00;98736.16;5043270;28;20084;-81
2023/10/31 04:46:19;;;;;;;0.10;0.10;;;;;;;11.19;100.00;98735.63;5036698;28;20077;-81
2023/10/31 04:48:45;;;;;;;2.88;0.30;;;;;;;11.18;100.00;98732.16;5048250;28;20065;-77
2023/10/31 04:51:12;;;;;;;0.10;0.10;;;;;;;11.19;100.00;98731.22;5040412;28;20499;-79
2023/10/31 04:53:38;;;;;;;0.00;0.00;;;;;;;11.18;100.00;98740.00;5045165;28;20116;-80
2023/10/31 04:56:05;;;;;;;0.38;0.10;;;;;;;11.16;100.00;98744.47;5051212;28;20055;-79
2023/10/31 04:58:31;;;;;;;0.20;0.00;;;;;;;11.18;100.00;98749.63;5040439;28;20108;-77
2023/10/31 05:00:58;;;;;;;0.13;0.00;;;;;;;11.14;100.00;98755.94;5019443;28;20435;-78
2023/10/31 05:03:24;;;;;;;1.35;0.00;;;;;;;11.09;100.00;98750.88;5044716;28;20116;-78
2023/10/31 05:05:51;;;;;;;0.00;0.00;;;;;;;11.13;100.00;98759.44;5047173;28;20041;-78
2023/10/31 05:08:17;;;;;;;0.20;0.20;;;;;;;11.02;100.00;98757.28;5033701;28;20037;-79
2023/10/31 05:10:44;;;;;;;0.20;0.10;;;;;;;11.05;100.00;98778.94;5033500;28;20738;-79
2023/10/31 05:13:10;;;;;;;0.10;0.00;;;;;;;10.93;100.00;98763.75;5020703;28;20124;-79
2023/10/31 05:15:39;;;;;;;0.00;0.00;;;;;;;10.90;100.00;98763.88;5029679;28;20053;-80
2023/10/31 05:18:06;;;;;;;0.10;0.10;;;;;;;10.87;100.00;98780.56;5039756;28;20048;-78
2023/10/31 05:20:32;;;;;;;0.40;0.00;;;;;;;10.86;100.00;98754.44;5042468;28;20047;-78
2023/10/31 05:22:59;;;;;;;0.35;0.35;;;;;;;10.86;99.54;98772.75;5026628;28;20755;-78
2023/10/31 05:25:25;;;;;;;0.20;0.00;;;;;;;10.86;98.94;98763.16;5043528;28;20043;-80
2023/10/31 05:27:52;;;;;;;0.00;0.00;;;;;;;10.84;100.00;98770.19;5057864;28;20045;-79
2023/10/31 05:30:19;;;;;;;1.02;0.00;;;;;;;10.82;99.24;98777.28;5041134;28;20301;-77
2023/10/31 05:32:45;;;;;;;0.00;0.00;;;;;;;10.82;98.68;98779.03;5047229;28;20073;-76
2023/10/31 05:35:14;;;;;;;0.00;0.00;;;;;;;10.76;98.54;98777.50;5047301;28;20625;-78
2023/10/31 05:37:40;;;;;;;0.10;0.10;;;;;;;10.86;98.41;98778.84;5025888;28;20081;-78
2023/10/31 05:40:12;;;;;;;0.17;0.05;;;;;;;10.79;98.04;98777.38;5037071;28;20037;-79
2023/10/31 05:42:42;;;;;;;0.30;0.00;;;;;;;10.76;97.15;98785.38;5048614;28;20081;-77
2023/10/31 05:45:09;;;;;;;0.00;0.00;;;;;;;10.84;96.92;98798.16;5043063;28;20041;-77
2023/10/31 05:47:36;;;;;;;0.40;0.20;;;;;;;10.85;96.90;98794.63;5041269;28;20098;-78
2023/10/31 05:50:02;;;;;;;0.22;0.00;;;;;;;10.83;97.01;98809.53;5050490;28;20042;-78
2023/10/31 05:52:31;;;;;;;0.08;0.08;;;;;;;10.85;97.02;98810.34;5043196;28;20581;-77
2023/10/31 05:54:58;;;;;;;0.38;0.00;;;;;;;10.87;97.27;98835.53;5030045;28;21408;-81
2023/10/31 05:57:24;;;;;;;0.13;0.10;;;;;;;10.88;97.02;98824.13;5034819;28;20041;-79
2023/10/31 05:59:51;;;;;;;0.65;0.10;;;;;;;10.87;97.34;98839.91;5042839;28;20555;-80
2023/10/31 06:02:17;;;;;;;0.90;0.20;;;;;;;10.90;97.43;98847.66;5046416;28;20064;-77
2023/10/31 06:04:47;;;;;;;0.15;0.10;;;;;;;10.89;97.38;98848.56;5050484;28;20047;-81
2023/10/31 06:07:17;;;;;;;0.30;0.10;;;;;;;10.86;97.32;98852.16;5029469;28;20386;-79
2023/10/31 06:09:46;;;;;;;0.57;0.30;;;;;;;10.90;97.04;98856.34;5038007;28;20413;-77
2023/10/31 06:12:15;;;;;;;0.25;0.17;;;;;;;10.84;97.14;98874.91;5041243;28;20059;-78
2023/10/31 06:14:44;;;;;;;0.82;0.20;;;;;;;10.89;97.35;98882.59;5045051;28;20065;-79
2023/10/31 06:17:11;;;;;;;1.63;0.30;;;;;;;10.82;97.43;98881.97;5048989;28;20059;-83
2023/10/31 06:19:38;;;;;;;2.28;0.32;;;;;;;10.78;97.91;98879.53;5040357;28;20052;-76
2023/10/31 06:22:05;;;;;;;0.30;0.30;;;;;;;10.76;98.30;98882.19;5049194;28;20052;-76
2023/10/31 06:24:31;;;;;;;1.67;0.40;;;;;;;10.73;98.07;98882.34;5044436;28;20049;-79
2023/10/31 06:26:58;;;;;;;1.65;0.25;;;;;;;10.72;98.67;98878.00;5030177;28;20045;-77
2023/10/31 06:29:25;;;;;;;0.30;0.30;;;;;;;10.80;98.82;98877.72;5042197;28;20064;-78
2023/10/31 06:31:51;;;;;;;0.75;0.50;;;;;;;10.76;98.90;98877.81;5041325;28;20057;-78
2023/10/31 06:34:20;;;;;;;3.95;0.88;;;;;;;10.79;99.18;98889.09;5028967;28;21652;-77
2023/10/31 06:36:46;;;;;;;1.13;0.70;;;;;;;10.72;99.34;98894.53;5046212;28;20126;-83
2023/10/31 06:39:13;;;;;;;0.73;0.73;;;;;;;10.72;99.27;98891.94;5043823;28;20480;-78
2023/10/31 06:41:39;;;;;;;0.57;0.52;;;;;;;10.73;99.11;98898.88;5028547;28;20242;-77
2023/10/31 06:44:06;;;;;;;1.65;0.80;;;;;;;10.74;99.04;98905.81;5041186;28;20045;-77
2023/10/31 06:46:32;;;;;;;2.17;0.90;;;;;;;10.73;98.87;98911.97;5040845;28;20420;-78
2023/10/31 06:48:59;;;;;;;2.97;0.70;;;;;;;10.78;99.10;98919.66;5046266;28;20041;-77
2023/10/31 06:51:25;;;;;;;2.15;0.80;;;;;;;10.80;99.01;98914.34;5044542;28;20053;-80
2023/10/31 06:53:54;;;;;;;0.65;0.65;;;;;;;10.82;99.32;98912.50;5047641;28;20072;-78
2023/10/31 06:56:20;;;;;;;3.30;0.65;;;;;;;10.79;99.35;98921.34;5021756;28;20052;-78
2023/10/31 06:58:47;;;;;;;1.73;1.30;;;;;;;10.79;99.09;98910.88;5039670;28;20045;-80
2023/10/31 07:01:18;;;;;;;2.13;0.70;;;;;;;10.77;99.31;98910.09;5041188;28;20055;-82
2023/10/31 07:03:44;;;;;;;1.50;1.40;;;;;;;10.80;99.28;98917.81;5039617;28;20053;-79
2023/10/31 07:06:11;;;;;;;2.30;0.77;;;;;;;10.81;99.61;98922.16;5042853;28;20469;-80
2023/10/31 07:08:38;;;;;;;2.88;1.13;;;;;;;10.80;99.38;98923.03;5045076;28;20095;-77
2023/10/31 07:11:05;;;;;;;3.85;1.05;;;;;;;10.81;98.91;98927.38;5045900;28;20052;-78
2023/10/31 07:13:31;;;;;;;0.73;0.73;;;;;;;10.82;99.42;98931.72;5023034;28;20053;-81
2023/10/31 07:15:58;;;;;;;1.98;1.05;;;;;;;10.83;99.57;98938.63;5034135;28;20045;-78
2023/10/31 07:18:24;;;;;;;1.77;0.75;;;;;;;10.84;99.42;98942.13;5043646;28;20534;-80
2023/10/31 07:20:51;;;;;;;0.80;0.70;;;;;;;10.87;99.74;98945.47;5045417;28;20094;-78
2023/10/31 07:23:18;;;;;;;1.67;0.95;;;;;;;10.85;99.51;98944.66;5041450;28;20033;-77
2023/10/31 07:25:45;;;;;;;3.00;1.10;;;;;;;10.79;100.00;98942.28;5044509;28;20047;-78
2023/10/31 07:28:12;;;;;;;2.45;0.88;;;;;;;10.78;99.91;98943.22;5043772;28;20041;-78
2023/10/31 07:30:38;;;;;;;2.85;0.60;;;;;;;10.76;100.00;98943.25;5044595;28;20049;-82
2023/10/31 07:33:05;;;;;;;3.40;0.90;;;;;;;10.73;100.00;98935.50;5046672;28;20052;-78
2023/10/31 07:35:32;;;;;;;2.25;1.90;;;;;;;10.83;100.00;98943.84;5040186;28;20043;-78
2023/10/31 07:37:58;;;;;;;2.08;0.73;;;;;;;10.83;100.00;98943.84;5044530;28;20095;-79
2023/10/31 07:40:25;;;;;;;1.17;0.80;;;;;;;10.85;100.00;98954.31;5026393;28;20047;-80
2023/10/31 07:42:52;;;;;;;0.80;0.80;;;;;;;10.73;100.00;98953.00;5046422;28;20041;-78
2023/10/31 07:45:18;;;;;;;1.30;1.08;;;;;;;10.83;100.00;98962.19;5023779;28;20065;-80
2023/10/31 07:47:45;;;;;;;0.80;0.80;;;;;;;10.78;100.00;98960.66;5043446;28;20047;-79
2023/10/31 07:50:13;;;;;;;2.15;0.70;;;;;;;10.78;100.00;98961.53;5050890;28;20045;-77
2023/10/31 07:52:39;;;;;;;0.88;0.85;;;;;;;10.76;100.00;98956.31;5048992;28;20025;-81
2023/10/31 07:55:06;;;;;;;0.52;0.47;;;;;;;10.80;100.00;98967.53;5026160;28;20132;-78
2023/10/31 07:57:33;;;;;;;0.90;0.90;;;;;;;10.73;100.00;98968.69;5028169;28;20417;-78
2023/10/31 07:59:59;;;;;;;0.52;0.52;;;;;;;10.76;100.00;98973.81;5040208;28;20711;-78
2023/10/31 08:02:26;;;;;;;0.85;0.50;;;;;;;10.77;100.00;98975.53;5034050;28;20139;-82
2023/10/31 08:04:55;;;;;;;0.90;0.88;;;;;;;10.72;100.00;98969.59;5044052;28;20055;-80
2023/10/31 08:07:23;;;;;;;1.02;0.60;;;;;;;10.65;100.00;98974.22;5045916;28;20127;-78
2023/10/31 08:09:49;;;;;;;0.52;0.47;;;;;;;10.61;100.00;98969.13;5049616;28;20063;-78
2023/10/31 08:12:16;;;;;;;2.65;0.63;;;;;;;10.59;100.00;98971.81;5041811;28;20063;-81
2023/10/31 08:14:42;;;;;;;1.05;1.00;;;;;;;10.63;100.00;98983.88;5030536;28;20765;-78
2023/10/31 08:17:09;;;;;;;0.82;0.82;;;;;;;10.76;100.00;98979.03;5050412;28;20503;-78
2023/10/31 08:19:35;;;;;;;1.02;1.02;;;;;;;10.76;100.00;98981.66;5044336;28;21934;-83
2023/10/31 08:22:02;;;;;;;2.05;0.82;;;;;;;10.84;100.00;98990.06;5034468;28;20048;-79
2023/10/31 08:24:28;;;;;;;3.63;0.68;;;;;;;10.87;100.00;98996.97;5045242;28;20056;-79
2023/10/31 08:26:56;;;;;;;1.27;0.77;;;;;;;10.80;100.00;98991.09;5029175;28;20049;-77
2023/10/31 08:29:23;;;;;;;0.40;0.40;;;;;;;10.91;100.00;99007.28;5027631;28;20043;-78
2023/10/31 08:31:49;;;;;;;0.40;0.40;;;;;;;11.01;100.00;99010.38;5041074;28;20066;-77
2023/10/31 08:34:19;;;;;;;1.48;0.93;;;;;;;11.15;100.00;99004.66;5043317;28;20412;-82
2023/10/31 08:36:45;;;;;;;0.88;0.63;;;;;;;11.17;100.00;99007.19;5038966;28;20041;-77
2023/10/31 08:39:12;;;;;;;0.77;0.28;;;;;;;11.13;100.00;99022.16;5028424;28;20560;-78
2023/10/31 08:41:56;;;;;;;1.55;1.45;;;;;;;11.16;100.00;99018.59;5068658;28;20496;-77
2023/10/31 08:44:26;;;;;;;0.40;0.40;;;;;;;11.29;99.87;99027.72;5049430;28;20060;-79
2023/10/31 08:46:55;;;;;;;1.33;0.93;;;;;;;11.27;99.02;99029.53;5042881;28;20033;-77
2023/10/31 08:49:22;;;;;;;1.52;1.20;;;;;;;11.25;99.51;99039.19;5051537;28;20068;-77
2023/10/31 08:51:48;;;;;;;0.90;0.35;;;;;;;11.18;98.42;99032.50;5046129;28;20040;-78
2023/10/31 08:54:15;;;;;;;1.73;0.38;;;;;;;11.23;98.45;99049.72;5046872;28;20072;-81
2023/10/31 08:56:43;;;;;;;3.83;0.57;;;;;;;11.30;98.93;99050.34;5020340;28;20049;-78
2023/10/31 08:59:09;;;;;;;1.38;0.30;;;;;;;11.32;97.58;99047.69;5056973;28;20067;-78
2023/10/31 09:01:36;;;;;;;0.40;0.40;;;;;;;11.36;97.32;99052.75;5044242;28;20053;-80
2023/10/31 09:04:03;;;;;;;0.40;0.40;;;;;;;11.31;97.26;99052.06;5056301;28;20053;-79
2023/10/31 09:06:29;;;;;;;0.80;0.45;;;;;;;11.45;96.80;99059.41;5055362;28;20033;-80
2023/10/31 09:08:56;;;;;;;0.55;0.52;;;;;;;11.58;96.49;99065.03;5050189;28;20073;-83
2023/10/31 09:11:22;;;;;;;1.27;0.50;;;;;;;11.77;95.78;99070.38;5058384;28;20064;-80
2023/10/31 09:13:49;;;;;;;0.50;0.50;;;;;;;12.02;93.99;99074.69;5053331;28;20053;-80
2023/10/31 09:16:16;;;;;;;1.48;0.40;;;;;;;12.01;93.67;99073.00;5035393;28;20044;-84
2023/10/31 09:18:46;;;;;;;0.30;0.30;;;;;;;11.94;93.21;99064.47;5025326;28;20037;-78
2023/10/31 09:21:13;;;;;;;0.90;0.40;;;;;;;12.22;92.26;99082.63;5044699;28;20041;-82
2023/10/31 09:23:41;;;;;;;1.08;0.30;;;;;;;12.26;91.63;99087.75;5025266;28;20085;-81
2023/10/31 09:26:07;;;;;;;1.25;0.30;;;;;;;12.15;92.04;99088.16;5023838;28;20508;-79
2023/10/31 09:28:39;;;;;;;2.17;0.47;;;;;;;11.98;92.17;99091.47;5039036;28;20124;-79
2023/10/31 09:31:05;;;;;;;1.73;0.35;;;;;;;11.91;93.67;99104.81;5041767;28;20103;-78
2023/10/31 09:33:32;;;;;;;0.30;0.30;;;;;;;11.64;93.73;99101.50;5038200;28;20115;-81
2023/10/31 09:35:58;;;;;;;0.30;0.30;;;;;;;11.68;94.66;99116.19;5038722;28;20126;-80
2023/10/31 09:38:25;;;;;;;1.35;0.77;;;;;;;11.64;94.58;99125.09;5036756;28;20037;-78
2023/10/31 09:40:51;;;;;;;1.48;0.20;;;;;;;11.44;94.70;99124.97;5040471;28;20056;-78
2023/10/31 09:43:18;;;;;;;0.20;0.10;;;;;;;11.34;95.52;99116.59;5042187;28;20033;-78
2023/10/31 09:45:45;;;;;;;0.32;0.15;;;;;;;11.34;96.05;99124.44;5039271;28;20045;-80
2023/10/31 09:48:12;;;;;;;1.10;0.17;;;;;;;11.21;94.51;99122.28;5021997;28;20390;-81
2023/10/31 09:50:39;;;;;;;0.22;0.20;;;;;;;11.30;94.04;99126.31;5038325;28;20045;-78
2023/10/31 09:53:07;;;;;;;0.38;0.10;;;;;;;11.29;94.16;99127.25;5026154;28;20044;-77
2023/10/31 09:55:37;;;;;;;0.20;0.20;;;;;;;11.27;93.69;99152.63;5042376;28;20037;-80
2023/10/31 09:58:04;;;;;;;0.10;0.10;;;;;;;11.38;92.40;99144.38;5056474;28;20037;-80
2023/10/31 10:00:30;;;;;;;0.32;0.10;;;;;;;11.33;91.07;99162.03;5043401;28;20039;-80
2023/10/31 10:02:58;;;;;;;0.10;0.10;;;;;;;11.36;90.22;99148.84;5031322;28;20131;-79
2023/10/31 10:05:26;;;;;;;0.10;0.10;;;;;;;11.48;90.34;99165.88;5048467;28;20045;-78
2023/10/31 10:07:56;;;;;;;1.38;1.20;;;;;;;11.48;89.98;99160.63;5044231;28;20060;-80
2023/10/31 10:10:23;;;;;;;0.10;0.10;;;;;;;11.59;89.79;99184.69;5044383;28;20041;-77
2023/10/31 10:12:49;;;;;;;0.50;0.17;;;;;;;11.49;89.89;99183.31;5049072;28;20055;-78
2023/10/31 10:15:16;;;;;;;1.15;0.05;;;;;;;11.47;90.49;99183.38;5050564;28;20043;-78
2023/10/31 10:17:53;;;;;;;0.40;0.10;;;;;;;11.61;89.27;99180.22;5046809;28;20156;-81
2023/10/31 10:20:21;;;;;;;0.25;0.20;;;;;;;11.60;89.27;99173.25;5047690;28;20085;-78
2023/10/31 10:22:47;;;;;;;0.35;0.10;;;;;;;11.83;88.99;99189.94;5035388;28;20528;-78
2023/10/31 10:25:21;;;;;;;0.10;0.10;;;;;;;11.77;88.87;99198.84;5047654;28;20037;-83
2023/10/31 10:27:48;;;;;;;0.28;0.00;;;;;;;11.69;89.07;99207.03;5039654;28;20053;-79
2023/10/31 10:30:16;;;;;;;0.30;0.20;;;;;;;11.72;89.42;99199.03;5050588;28;20061;-80
2023/10/31 10:32:44;;;;;;;0.32;0.15;;;;;;;11.79;88.67;99196.19;5048020;28;20388;-81
2023/10/31 10:35:11;;;;;;;0.20;0.10;;;;;;;11.79;88.97;99215.41;5048121;28;20041;-83
2023/10/31 10:37:41;;;;;;;0.25;0.13;;;;;;;11.74;89.36;99198.97;5051483;28;20048;-78
2023/10/31 10:40:08;;;;;;;0.10;0.10;;;;;;;11.81;89.88;99213.59;5033141;28;20405;-81
2023/10/31 10:43:00;;;;;;;0.10;0.10;;;;;;;11.88;89.21;99209.81;5023013;28;20068;-81
2023/10/31 10:45:27;;;;;;;0.75;0.10;;;;;;;11.79;89.29;99197.03;5045620;28;20048;-81
2023/10/31 10:48:00;;;;;;;3.92;0.28;;;;;;;11.99;89.49;99209.41;5044791;28;20091;-80
2023/10/31 10:50:31;;;;;;;0.43;0.17;;;;;;;11.81;89.56;99190.00;5033054;28;20127;-77
2023/10/31 10:53:28;;;;;;;0.10;0.10;;;;;;;11.79;89.89;99215.41;5046110;28;20059;-80
2023/10/31 10:56:27;;;;;;;0.90;0.20;;;;;;;11.84;90.33;99221.31;5045007;28;20045;-77
2023/10/31 10:59:04;;;;;;;2.00;0.30;;;;;;;11.95;90.14;99220.94;5076292;28;20515;-81
2023/10/31 11:01:33;;;;;;;0.20;0.20;;;;;;;11.88;90.65;99214.22;5031669;28;20041;-80
2023/10/31 11:04:00;;;;;;;0.90;0.20;;;;;;;11.91;91.08;99230.69;5030995;28;20142;-78
2023/10/31 11:06:27;;;;;;;1.75;0.50;;;;;;;11.92;90.79;99227.13;5051340;28;20044;-79
2023/10/31 11:08:57;;;;;;;0.30;0.30;;;;;;;11.94;90.48;99234.94;5047297;28;20043;-77
2023/10/31 11:11:26;;;;;;;0.55;0.43;;;;;;;12.04;90.51;99240.72;5055132;28;20130;-76
2023/10/31 11:13:56;;;;;;;0.40;0.40;;;;;;;12.18;90.37;99242.84;5069725;28;20041;-77
2023/10/31 11:16:55;;;;;;;0.50;0.20;;;;;;;12.02;90.33;99246.03;5045992;28;20056;-86
2023/10/31 11:19:25;;;;;;;0.47;0.20;;;;;;;12.11;90.90;99259.72;5061960;28;20071;-77
2023/10/31 11:22:02;;;;;;;2.10;0.50;;;;;;;11.92;90.99;99242.84;5058648;28;20081;-77
2023/10/31 11:24:33;;;;;;;0.35;0.28;;;;;;;11.93;91.67;99248.97;5059359;28;20053;-76
2023/10/31 11:27:03;;;;;;;0.90;0.40;;;;;;;11.95;91.42;99269.91;5055758;28;20033;-76
2023/10/31 11:29:32;;;;;;;0.40;0.40;;;;;;;11.97;91.13;99263.72;5036435;28;20051;-77
2023/10/31 11:32:00;;;;;;;0.50;0.43;;;;;;;11.92;91.88;99266.47;5024466;28;20042;-79